• Join FlightAware (Why Join?)
  • Login
  • US Flag 
09:23AM EDT


 

Airport Tracker/Info


-or-


 

Live Flight TrackerFlight Track Log ✈ TFX146 ✈ 04-Jul-2013 ✈ YSBK / BWU - YBBN / BNE

Flight Track Log - Related Links

Times and Time Zones

All times are in EDT time to prevent confusion due to time zone crossing. See the TFX146 flight status page for this flight to view local times or setup timezone preferences in your user account.

Time Position Orientation Groundspeed Altitude Reporting Facility
EDT Latitude Longitude Course Direction KTS MPH feet Rate Location/Type
09:01AM -33.8784 150.9970 43° Northeast 187 215 1,700  Level Aus ATC (RADAR)
09:02AM -33.8322 151.0481 43° Northeast 210 242 3,000 1,080 Climbing Aus ATC (RADAR)
09:03AM -33.7833 151.1039 43° Northeast 218 251 4,100 1,020 Climbing Aus ATC (RADAR)
09:04AM -33.7348 151.1632 46° Northeast 224 258 5,300 900 Climbing Aus ATC (RADAR)
09:05AM -33.6768 151.2029 30° Northeast 220 253 6,100 840 Climbing Aus ATC (RADAR)
09:06AM -33.6147 151.2234 15° North 207 238 7,200 840 Climbing Aus ATC (RADAR)
09:07AM -33.5508 151.2432 15° North 224 258 8,000 780 Climbing Aus ATC (RADAR)
09:08AM -33.4894 151.2615 14° North 216 249 8,900 960 Climbing Aus ATC (RADAR)
09:09AM -33.4320 151.2789 14° North 203 234 10,000 960 Climbing Aus ATC (RADAR)
09:10AM -33.3712 151.3005 17° North 204 235 10,900 780 Climbing Aus ATC (RADAR)
09:11AM -33.3043 151.3260 18° North 221 254 11,800 780 Climbing Aus ATC (RADAR)
09:12AM -33.2467 151.3513 20° North 199 229 12,700 480 Climbing Aus ATC (RADAR)
09:13AM -33.1851 151.3821 23° Northeast 217 250 12,900 120 Climbing Aus ATC (RADAR)
09:15AM -33.1003 151.4167 19° North 240 276 13,100  Climbing Aus ATC (RADAR)
09:16AM -33.0465 151.4375 18° North 238 274 13,000 -60 Descending Aus ATC (RADAR)
09:17AM -32.9740 151.4660 18° North 239 275 13,000  Level Aus ATC (RADAR)
09:18AM -32.8983 151.4958 18° North 250 288 13,000  Level Aus ATC (RADAR)
09:19AM -32.8309 151.5234 19° North 244 281 13,000  Level Aus ATC (RADAR)
09:20AM -32.7583 151.5514 18° North 247 284 13,000  Level Aus ATC (RADAR)
09:21AM -32.6917 151.5773 18° North 252 290 13,000  Level Aus ATC (RADAR)
09:22AM -32.6199 151.6044 18° North 250 288 13,000  Level Aus ATC (RADAR)
09:23AM -32.5536 151.6303 18° North 248 285 13,000  Level Aus ATC (RADAR)
09:24AM -32.4756 151.6600 18° North 252 290 13,000  Level Aus ATC (RADAR)
09:25AM -32.4031 151.6851 16° North 254 292 13,000  Level Aus ATC (RADAR)
09:26AM -32.3311 151.7178 21° North 251 289 13,000  Level Aus ATC (RADAR)
09:27AM -32.2600 151.7472 19° North 251 289 13,000  Level Aus ATC (RADAR)
09:28AM -32.1889 151.7745 18° North 250 288 13,000  Level Aus ATC (RADAR)
09:30AM -32.1105 151.8065 19° North 252 290 13,000  Level Aus ATC (RADAR)
09:31AM -32.0439 151.8325 18° North 253 291 13,000  Level Aus ATC (RADAR)
09:32AM -31.9716 151.8602 18° North 255 293 13,000 60 Level Aus ATC (RADAR)
09:33AM -31.8959 151.8898 18° North 247 284 13,200 60 Climbing Aus ATC (RADAR)
09:34AM -31.8289 151.9183 20° North 255 293 13,200  Level Aus ATC (RADAR)
09:35AM -31.7573 151.9462 18° North 254 292 13,200  Level Aus ATC (RADAR)
09:36AM -31.6853 151.9734 18° North 249 287 13,200  Level Aus ATC (RADAR)
09:37AM -31.6138 152.0002 18° North 246 283 13,200  Level Aus ATC (RADAR)
09:38AM -31.5502 152.0257 19° North 246 283 13,200  Level Aus ATC (RADAR)
09:39AM -31.4740 152.0564 19° North 250 288 13,200  Level Aus ATC (RADAR)
09:40AM -31.4075 152.0824 18° North 250 288 13,200  Level Aus ATC (RADAR)
09:41AM -31.3371 152.1104 19° North 248 285 13,200  Level Aus ATC (RADAR)
09:42AM -31.2671 152.1378 18° North 247 284 13,200  Level Aus ATC (RADAR)
09:44AM -31.1979 152.1645 18° North 241 277 13,200  Level Aus ATC (RADAR)
09:45AM -31.1231 152.1926 18° North 240 276 13,200  Level Aus ATC (RADAR)
09:46AM -31.0605 152.2182 19° North 240 276 13,200  Level Aus ATC (RADAR)
09:47AM -30.9931 152.2455 19° North 239 275 13,200  Level Aus ATC (RADAR)
09:48AM -30.9275 152.2702 18° North 242 278 13,200  Level Aus ATC (RADAR)
09:49AM -30.8537 152.2981 18° North 240 276 13,200  Level Aus ATC (RADAR)
09:50AM -30.7878 152.3224 18° North 242 278 13,200  Level Aus ATC (RADAR)
09:51AM -30.7148 152.3508 19° North 238 274 13,200  Level Aus ATC (RADAR)
09:52AM -30.6499 152.3745 17° North 240 276 13,200  Level Aus ATC (RADAR)
09:53AM -30.5833 152.4022 20° North 235 270 13,200  Level Aus ATC (RADAR)
09:54AM -30.5151 152.4285 18° North 237 273 13,200  Level Aus ATC (RADAR)
09:55AM -30.4460 152.4552 18° North 242 278 13,200  Level Aus ATC (RADAR)
09:56AM -30.3804 152.4802 18° North 247 284 13,200  Level Aus ATC (RADAR)
09:58AM -30.2983 152.5086 17° North 246 283 13,200  Level Aus ATC (RADAR)
09:59AM -30.2321 152.5343 19° North 248 285 13,200  Level Aus ATC (RADAR)
10:00AM -30.1518 152.5659 19° North 246 283 13,200  Level Aus ATC (RADAR)
10:01AM -30.0905 152.5897 19° North 250 288 13,200  Level Aus ATC (RADAR)
10:02AM -30.0217 152.6174 19° North 243 280 13,200  Level Aus ATC (RADAR)
10:03AM -29.9543 152.6421 18° North 247 284 13,200  Level Aus ATC (RADAR)
10:04AM -29.8839 152.6709 20° North 248 285 13,200  Level Aus ATC (RADAR)
10:05AM -29.8131 152.6973 18° North 247 284 13,200  Level Aus ATC (RADAR)
10:06AM -29.7441 152.7230 18° North 246 283 13,200  Level Aus ATC (RADAR)
10:07AM -29.6722 152.7524 20° North 246 283 13,200  Level Aus ATC (RADAR)
10:08AM -29.6068 152.7747 17° North 247 284 13,200  Level Aus ATC (RADAR)
10:09AM -29.5360 152.7999 17° North 244 281 13,200  Level Aus ATC (RADAR)
10:10AM -29.4659 152.8278 19° North 246 283 13,200  Level Aus ATC (RADAR)
10:11AM -29.3944 152.8528 17° North 248 285 13,200  Level Aus ATC (RADAR)
10:12AM -29.3254 152.8765 17° North 247 284 13,200  Level Aus ATC (RADAR)
10:14AM -29.2529 152.9056 19° North 246 283 13,200  Level Aus ATC (RADAR)
10:15AM -29.1824 152.9326 18° North 244 281 13,200  Level Aus ATC (RADAR)
10:16AM -29.1172 152.9565 18° North 244 281 13,200  Level Aus ATC (RADAR)
10:17AM -29.0443 152.9730 11° North 244 281 13,200  Level Aus ATC (RADAR)
10:18AM -28.9716 152.9901 12° North 245 282 13,200  Level Aus ATC (RADAR)
10:19AM -28.8931 153.0105 13° North 249 287 13,200  Level Aus ATC (RADAR)
10:20AM -28.8319 153.0283 14° North 246 283 13,200  Level Aus ATC (RADAR)
10:21AM -28.7653 153.0482 15° North 248 285 13,200  Level Aus ATC (RADAR)
10:22AM -28.6874 153.0711 14° North 246 283 13,200  Level Aus ATC (RADAR)
10:23AM -28.6141 153.0921 14° North 251 289 13,200  Level Aus ATC (RADAR)
10:24AM -28.5467 153.1108 14° North 247 284 13,200  Level Aus ATC (RADAR)
10:25AM -28.4679 153.1320 13° North 248 285 13,200  Level Aus ATC (RADAR)
10:26AM -28.3943 153.1513 13° North 252 290 13,200 -420 Level Aus ATC (RADAR)
10:27AM -28.3245 153.1724 15° North 260 299 12,400 -720 Descending Aus ATC (RADAR)
10:29AM -28.2424 153.1984 16° North 266 306 11,700 -780 Descending Aus ATC (RADAR)
10:30AM -28.1669 153.2218 15° North 281 323 10,800 -840 Descending Aus ATC (RADAR)
10:31AM -28.0803 153.2473 15° North 273 314 10,000 -600 Descending Aus ATC (RADAR)
10:32AM -27.9961 153.2699 13° North 266 306 9,500 -720 Descending Aus ATC (RADAR)
10:33AM -27.9240 153.2886 13° North 270 311 8,500 -1,140 Descending Aus ATC (RADAR)
10:34AM -27.8433 153.3117 14° North 277 319 7,200 -1,080 Descending Aus ATC (RADAR)
10:35AM -27.7670 153.3327 14° North 249 287 6,200 -840 Descending Aus ATC (RADAR)
10:36AM -27.7037 153.3440 North 214 246 5,400 -1,020 Descending Aus ATC (RADAR)
10:37AM -27.6370 153.3380 355° North 228 262 4,000 -660 Descending Aus ATC (RADAR)
10:38AM -27.5796 153.3375 360° North 180 207 4,000 -300 Level Aus ATC (RADAR)
10:39AM -27.5283 153.3366 359° North 186 214 3,500 -840 Descending Aus ATC (RADAR)
10:40AM -27.4946 153.2914 310° West 173 199 2,300 -960 Descending Aus ATC (RADAR)
10:41AM -27.4670 153.2406 302° West 174 200 1,500 -480 Descending Aus ATC (RADAR)
10:42AM -27.4443 153.1949 299° West 170 196 1,300 -240 Descending Aus ATC (RADAR)
10:44AM -27.4068 153.1639 324° Northwest 150 173 1,000 -540 Descending Aus ATC (RADAR)
10:45AM -27.3706 153.1361 326° Northwest 139 160 200 -780 Descending Aus ATC (RADAR)